sensor_id;sensor_type;location;lat;lon;timestamp;temperature;humidity
30304;DHT22;17112;48.636;10.152;2023-07-16T00:01:26;23.20;67.60
30304;DHT22;17112;48.636;10.152;2023-07-16T00:03:51;23.20;67.40
30304;DHT22;17112;48.636;10.152;2023-07-16T00:06:17;23.20;67.60
30304;DHT22;17112;48.636;10.152;2023-07-16T00:08:43;23.20;67.80
30304;DHT22;17112;48.636;10.152;2023-07-16T00:11:08;23.20;67.90
30304;DHT22;17112;48.636;10.152;2023-07-16T00:13:34;23.20;67.80
30304;DHT22;17112;48.636;10.152;2023-07-16T00:15:59;23.20;67.90
30304;DHT22;17112;48.636;10.152;2023-07-16T00:18:25;23.20;67.90
30304;DHT22;17112;48.636;10.152;2023-07-16T00:20:51;23.30;67.90
30304;DHT22;17112;48.636;10.152;2023-07-16T00:23:16;23.30;68.50
30304;DHT22;17112;48.636;10.152;2023-07-16T00:25:42;23.30;67.80
30304;DHT22;17112;48.636;10.152;2023-07-16T00:28:07;23.30;67.70
30304;DHT22;17112;48.636;10.152;2023-07-16T00:30:33;23.30;67.40
30304;DHT22;17112;48.636;10.152;2023-07-16T00:32:59;23.30;67.50
30304;DHT22;17112;48.636;10.152;2023-07-16T00:35:24;23.30;67.50
30304;DHT22;17112;48.636;10.152;2023-07-16T00:37:50;23.30;67.60
30304;DHT22;17112;48.636;10.152;2023-07-16T00:40:17;23.30;67.80
30304;DHT22;17112;48.636;10.152;2023-07-16T00:42:42;23.30;67.70
30304;DHT22;17112;48.636;10.152;2023-07-16T00:45:11;23.30;67.60
30304;DHT22;17112;48.636;10.152;2023-07-16T00:47:39;23.20;67.90
30304;DHT22;17112;48.636;10.152;2023-07-16T00:50:05;23.20;67.50
30304;DHT22;17112;48.636;10.152;2023-07-16T00:52:31;23.20;67.40
30304;DHT22;17112;48.636;10.152;2023-07-16T00:54:58;23.20;67.20
30304;DHT22;17112;48.636;10.152;2023-07-16T00:57:24;23.20;66.90
30304;DHT22;17112;48.636;10.152;2023-07-16T00:59:50;23.20;66.90
30304;DHT22;17112;48.636;10.152;2023-07-16T01:02:16;23.10;66.80
30304;DHT22;17112;48.636;10.152;2023-07-16T01:04:41;23.10;66.90
30304;DHT22;17112;48.636;10.152;2023-07-16T01:07:08;23.00;67.40
30304;DHT22;17112;48.636;10.152;2023-07-16T01:09:42;23.00;67.70
30304;DHT22;17112;48.636;10.152;2023-07-16T01:12:08;23.00;67.40
30304;DHT22;17112;48.636;10.152;2023-07-16T01:14:34;23.00;67.40
30304;DHT22;17112;48.636;10.152;2023-07-16T01:17:07;23.00;67.40
30304;DHT22;17112;48.636;10.152;2023-07-16T01:19:33;23.00;67.80
30304;DHT22;17112;48.636;10.152;2023-07-16T01:25:01;23.00;66.90
30304;DHT22;17112;48.636;10.152;2023-07-16T01:27:42;22.90;66.90
30304;DHT22;17112;48.636;10.152;2023-07-16T01:30:11;22.90;66.00
30304;DHT22;17112;48.636;10.152;2023-07-16T01:32:41;22.80;65.60
30304;DHT22;17112;48.636;10.152;2023-07-16T01:35:08;22.80;65.80
30304;DHT22;17112;48.636;10.152;2023-07-16T01:37:34;22.80;66.10
30304;DHT22;17112;48.636;10.152;2023-07-16T01:40:00;22.70;65.90
30304;DHT22;17112;48.636;10.152;2023-07-16T01:42:27;22.70;66.10
30304;DHT22;17112;48.636;10.152;2023-07-16T01:44:53;22.70;66.30
30304;DHT22;17112;48.636;10.152;2023-07-16T01:50:13;22.60;65.80
30304;DHT22;17112;48.636;10.152;2023-07-16T01:52:39;22.60;65.20
30304;DHT22;17112;48.636;10.152;2023-07-16T01:55:05;22.50;65.50
30304;DHT22;17112;48.636;10.152;2023-07-16T01:57:31;22.50;66.20
30304;DHT22;17112;48.636;10.152;2023-07-16T01:59:57;22.50;66.40
30304;DHT22;17112;48.636;10.152;2023-07-16T02:02:22;22.40;66.60
30304;DHT22;17112;48.636;10.152;2023-07-16T02:04:48;22.40;66.60
30304;DHT22;17112;48.636;10.152;2023-07-16T02:07:14;22.40;66.70
30304;DHT22;17112;48.636;10.152;2023-07-16T02:09:39;22.40;66.80
30304;DHT22;17112;48.636;10.152;2023-07-16T02:12:06;22.40;67.10
30304;DHT22;17112;48.636;10.152;2023-07-16T02:14:32;22.40;67.30
30304;DHT22;17112;48.636;10.152;2023-07-16T02:16:57;22.40;67.10
30304;DHT22;17112;48.636;10.152;2023-07-16T02:19:23;22.40;67.20
30304;DHT22;17112;48.636;10.152;2023-07-16T02:21:50;22.40;67.20
30304;DHT22;17112;48.636;10.152;2023-07-16T02:24:16;22.40;67.10
30304;DHT22;17112;48.636;10.152;2023-07-16T02:26:42;22.40;67.20
30304;DHT22;17112;48.636;10.152;2023-07-16T02:29:08;22.40;67.60
30304;DHT22;17112;48.636;10.152;2023-07-16T02:31:34;22.30;67.80
30304;DHT22;17112;48.636;10.152;2023-07-16T02:34:00;22.30;67.90
30304;DHT22;17112;48.636;10.152;2023-07-16T02:36:26;22.30;67.60
30304;DHT22;17112;48.636;10.152;2023-07-16T02:38:51;22.20;67.70
30304;DHT22;17112;48.636;10.152;2023-07-16T02:41:17;22.20;67.90
30304;DHT22;17112;48.636;10.152;2023-07-16T02:43:45;22.20;67.80
30304;DHT22;17112;48.636;10.152;2023-07-16T02:46:11;22.20;67.90
30304;DHT22;17112;48.636;10.152;2023-07-16T02:48:36;22.20;67.80
30304;DHT22;17112;48.636;10.152;2023-07-16T02:51:02;22.10;67.80
30304;DHT22;17112;48.636;10.152;2023-07-16T02:53:28;22.10;68.00
30304;DHT22;17112;48.636;10.152;2023-07-16T02:55:53;22.10;68.30
30304;DHT22;17112;48.636;10.152;2023-07-16T02:58:19;22.10;68.70
30304;DHT22;17112;48.636;10.152;2023-07-16T03:00:45;22.10;68.90
30304;DHT22;17112;48.636;10.152;2023-07-16T03:03:10;22.10;69.00
30304;DHT22;17112;48.636;10.152;2023-07-16T03:05:36;22.10;69.10
30304;DHT22;17112;48.636;10.152;2023-07-16T03:08:02;22.10;69.20
30304;DHT22;17112;48.636;10.152;2023-07-16T03:10:28;22.10;69.30
30304;DHT22;17112;48.636;10.152;2023-07-16T03:12:54;22.10;69.20
30304;DHT22;17112;48.636;10.152;2023-07-16T03:15:19;22.10;69.40
30304;DHT22;17112;48.636;10.152;2023-07-16T03:17:45;22.00;69.40
30304;DHT22;17112;48.636;10.152;2023-07-16T03:20:11;22.00;69.90
30304;DHT22;17112;48.636;10.152;2023-07-16T03:22:38;22.00;70.10
30304;DHT22;17112;48.636;10.152;2023-07-16T03:25:04;22.00;70.20
30304;DHT22;17112;48.636;10.152;2023-07-16T03:27:30;22.00;70.20
30304;DHT22;17112;48.636;10.152;2023-07-16T03:29:56;22.00;70.30
30304;DHT22;17112;48.636;10.152;2023-07-16T03:32:22;22.10;70.20
30304;DHT22;17112;48.636;10.152;2023-07-16T03:34:48;22.10;70.10
30304;DHT22;17112;48.636;10.152;2023-07-16T03:37:13;22.10;70.00
30304;DHT22;17112;48.636;10.152;2023-07-16T03:39:39;22.00;69.90
30304;DHT22;17112;48.636;10.152;2023-07-16T03:42:05;22.10;69.70
30304;DHT22;17112;48.636;10.152;2023-07-16T03:44:30;22.10;69.40
30304;DHT22;17112;48.636;10.152;2023-07-16T03:46:56;22.10;69.20
30304;DHT22;17112;48.636;10.152;2023-07-16T03:49:22;22.00;69.20
30304;DHT22;17112;48.636;10.152;2023-07-16T03:51:47;22.00;69.10
30304;DHT22;17112;48.636;10.152;2023-07-16T03:54:13;22.00;69.00
30304;DHT22;17112;48.636;10.152;2023-07-16T03:56:39;21.90;68.70
30304;DHT22;17112;48.636;10.152;2023-07-16T03:59:04;21.90;68.60
30304;DHT22;17112;48.636;10.152;2023-07-16T04:01:30;21.90;68.50
30304;DHT22;17112;48.636;10.152;2023-07-16T04:03:55;21.80;68.30
30304;DHT22;17112;48.636;10.152;2023-07-16T04:06:21;21.80;67.90
30304;DHT22;17112;48.636;10.152;2023-07-16T04:08:47;21.80;67.30
30304;DHT22;17112;48.636;10.152;2023-07-16T04:11:12;21.70;66.50
30304;DHT22;17112;48.636;10.152;2023-07-16T04:13:38;21.70;66.00
30304;DHT22;17112;48.636;10.152;2023-07-16T04:16:04;21.60;65.80
30304;DHT22;17112;48.636;10.152;2023-07-16T04:18:29;21.60;65.70
30304;DHT22;17112;48.636;10.152;2023-07-16T04:20:55;21.50;65.40
30304;DHT22;17112;48.636;10.152;2023-07-16T04:23:21;21.50;65.20
30304;DHT22;17112;48.636;10.152;2023-07-16T04:25:51;21.40;65.40
30304;DHT22;17112;48.636;10.152;2023-07-16T04:28:17;21.40;65.70
30304;DHT22;17112;48.636;10.152;2023-07-16T04:30:42;21.40;65.60
30304;DHT22;17112;48.636;10.152;2023-07-16T04:33:08;21.30;65.60
30304;DHT22;17112;48.636;10.152;2023-07-16T04:35:34;21.30;65.80
30304;DHT22;17112;48.636;10.152;2023-07-16T04:38:00;21.30;65.80
30304;DHT22;17112;48.636;10.152;2023-07-16T04:40:26;21.20;66.10
30304;DHT22;17112;48.636;10.152;2023-07-16T04:42:51;21.20;66.40
30304;DHT22;17112;48.636;10.152;2023-07-16T04:45:17;21.10;66.80
30304;DHT22;17112;48.636;10.152;2023-07-16T04:47:43;21.10;66.80
30304;DHT22;17112;48.636;10.152;2023-07-16T04:50:09;21.20;67.40
30304;DHT22;17112;48.636;10.152;2023-07-16T04:52:34;21.10;67.60
30304;DHT22;17112;48.636;10.152;2023-07-16T04:55:00;21.20;67.70
30304;DHT22;17112;48.636;10.152;2023-07-16T04:57:26;21.20;67.70
30304;DHT22;17112;48.636;10.152;2023-07-16T04:59:51;21.20;67.20
30304;DHT22;17112;48.636;10.152;2023-07-16T05:02:17;21.20;67.20
30304;DHT22;17112;48.636;10.152;2023-07-16T05:04:43;21.20;67.40
30304;DHT22;17112;48.636;10.152;2023-07-16T05:07:10;21.20;67.40
30304;DHT22;17112;48.636;10.152;2023-07-16T05:09:35;21.30;67.30
30304;DHT22;17112;48.636;10.152;2023-07-16T05:12:01;21.30;67.10
30304;DHT22;17112;48.636;10.152;2023-07-16T05:14:28;21.30;66.70
30304;DHT22;17112;48.636;10.152;2023-07-16T05:16:54;21.20;66.70
30304;DHT22;17112;48.636;10.152;2023-07-16T05:19:20;21.20;66.70
30304;DHT22;17112;48.636;10.152;2023-07-16T05:21:46;21.20;66.70
30304;DHT22;17112;48.636;10.152;2023-07-16T05:24:11;21.20;67.10
30304;DHT22;17112;48.636;10.152;2023-07-16T05:26:38;21.20;67.50
30304;DHT22;17112;48.636;10.152;2023-07-16T05:29:04;21.20;67.40
30304;DHT22;17112;48.636;10.152;2023-07-16T05:31:30;21.20;67.50
30304;DHT22;17112;48.636;10.152;2023-07-16T05:33:56;21.20;67.30
30304;DHT22;17112;48.636;10.152;2023-07-16T05:36:21;21.20;67.30
30304;DHT22;17112;48.636;10.152;2023-07-16T05:38:47;21.20;67.50
30304;DHT22;17112;48.636;10.152;2023-07-16T05:41:13;21.20;67.80
30304;DHT22;17112;48.636;10.152;2023-07-16T05:43:38;21.10;68.10
30304;DHT22;17112;48.636;10.152;2023-07-16T05:46:04;21.20;68.00
30304;DHT22;17112;48.636;10.152;2023-07-16T05:48:31;21.20;68.20
30304;DHT22;17112;48.636;10.152;2023-07-16T05:50:56;21.20;68.00
30304;DHT22;17112;48.636;10.152;2023-07-16T05:53:22;21.20;68.00
30304;DHT22;17112;48.636;10.152;2023-07-16T05:55:48;21.10;68.70
30304;DHT22;17112;48.636;10.152;2023-07-16T05:58:15;21.20;68.40
30304;DHT22;17112;48.636;10.152;2023-07-16T06:00:41;21.20;68.90
30304;DHT22;17112;48.636;10.152;2023-07-16T06:03:07;21.20;68.80
30304;DHT22;17112;48.636;10.152;2023-07-16T06:05:33;21.20;68.70
30304;DHT22;17112;48.636;10.152;2023-07-16T06:08:00;21.30;68.80
30304;DHT22;17112;48.636;10.152;2023-07-16T06:10:27;21.30;68.90
30304;DHT22;17112;48.636;10.152;2023-07-16T06:12:52;21.30;69.00
30304;DHT22;17112;48.636;10.152;2023-07-16T06:15:18;21.40;68.70
30304;DHT22;17112;48.636;10.152;2023-07-16T06:17:44;21.40;68.40
30304;DHT22;17112;48.636;10.152;2023-07-16T06:20:10;21.40;68.30
30304;DHT22;17112;48.636;10.152;2023-07-16T06:22:36;21.40;68.20
30304;DHT22;17112;48.636;10.152;2023-07-16T06:25:01;21.40;68.30
30304;DHT22;17112;48.636;10.152;2023-07-16T06:27:27;21.50;68.00
30304;DHT22;17112;48.636;10.152;2023-07-16T06:29:53;21.50;68.00
30304;DHT22;17112;48.636;10.152;2023-07-16T06:32:19;21.50;67.70
30304;DHT22;17112;48.636;10.152;2023-07-16T06:34:44;21.50;67.80
30304;DHT22;17112;48.636;10.152;2023-07-16T06:37:10;21.60;67.80
30304;DHT22;17112;48.636;10.152;2023-07-16T06:39:35;21.60;67.70
30304;DHT22;17112;48.636;10.152;2023-07-16T06:42:01;21.60;67.90
30304;DHT22;17112;48.636;10.152;2023-07-16T06:44:27;21.70;68.40
30304;DHT22;17112;48.636;10.152;2023-07-16T06:46:52;21.70;68.50
30304;DHT22;17112;48.636;10.152;2023-07-16T06:49:19;21.70;67.90
30304;DHT22;17112;48.636;10.152;2023-07-16T06:51:44;21.70;67.70
30304;DHT22;17112;48.636;10.152;2023-07-16T06:54:10;21.70;67.60
30304;DHT22;17112;48.636;10.152;2023-07-16T06:56:36;21.80;67.50
30304;DHT22;17112;48.636;10.152;2023-07-16T06:59:02;21.80;67.50
30304;DHT22;17112;48.636;10.152;2023-07-16T07:01:27;21.80;67.80
30304;DHT22;17112;48.636;10.152;2023-07-16T07:03:54;21.80;68.40
30304;DHT22;17112;48.636;10.152;2023-07-16T07:06:19;21.90;68.80
30304;DHT22;17112;48.636;10.152;2023-07-16T07:08:46;21.90;68.60
30304;DHT22;17112;48.636;10.152;2023-07-16T07:11:12;22.00;68.60
30304;DHT22;17112;48.636;10.152;2023-07-16T07:13:38;22.10;68.50
30304;DHT22;17112;48.636;10.152;2023-07-16T07:16:03;22.10;67.90
30304;DHT22;17112;48.636;10.152;2023-07-16T07:18:29;22.20;67.70
30304;DHT22;17112;48.636;10.152;2023-07-16T07:20:55;22.20;67.50
30304;DHT22;17112;48.636;10.152;2023-07-16T07:23:21;22.30;67.80
30304;DHT22;17112;48.636;10.152;2023-07-16T07:25:51;22.30;67.60
30304;DHT22;17112;48.636;10.152;2023-07-16T07:28:17;22.40;67.90
30304;DHT22;17112;48.636;10.152;2023-07-16T07:30:44;22.40;67.60
30304;DHT22;17112;48.636;10.152;2023-07-16T07:33:11;22.50;67.30
30304;DHT22;17112;48.636;10.152;2023-07-16T07:35:38;22.50;66.90
30304;DHT22;17112;48.636;10.152;2023-07-16T07:38:05;22.60;66.70
30304;DHT22;17112;48.636;10.152;2023-07-16T07:40:31;22.70;67.20
30304;DHT22;17112;48.636;10.152;2023-07-16T07:42:57;22.70;66.50
30304;DHT22;17112;48.636;10.152;2023-07-16T07:45:24;22.80;65.70
30304;DHT22;17112;48.636;10.152;2023-07-16T07:47:50;22.80;65.70
30304;DHT22;17112;48.636;10.152;2023-07-16T07:50:15;22.90;65.90
30304;DHT22;17112;48.636;10.152;2023-07-16T07:52:41;23.00;65.90
30304;DHT22;17112;48.636;10.152;2023-07-16T07:55:07;23.00;66.00
30304;DHT22;17112;48.636;10.152;2023-07-16T07:57:33;23.10;66.00
30304;DHT22;17112;48.636;10.152;2023-07-16T07:59:59;23.20;66.40
30304;DHT22;17112;48.636;10.152;2023-07-16T08:02:25;23.40;66.00
30304;DHT22;17112;48.636;10.152;2023-07-16T08:04:54;23.50;65.30
30304;DHT22;17112;48.636;10.152;2023-07-16T08:07:21;23.70;64.40
30304;DHT22;17112;48.636;10.152;2023-07-16T08:09:47;23.70;63.70
30304;DHT22;17112;48.636;10.152;2023-07-16T08:12:13;23.70;63.90
30304;DHT22;17112;48.636;10.152;2023-07-16T08:14:39;23.80;63.60
30304;DHT22;17112;48.636;10.152;2023-07-16T08:17:05;23.80;62.80
30304;DHT22;17112;48.636;10.152;2023-07-16T08:19:31;23.70;62.50
30304;DHT22;17112;48.636;10.152;2023-07-16T08:21:56;23.60;62.20
30304;DHT22;17112;48.636;10.152;2023-07-16T08:24:22;23.60;62.50
30304;DHT22;17112;48.636;10.152;2023-07-16T08:26:48;23.50;62.70
30304;DHT22;17112;48.636;10.152;2023-07-16T08:29:13;23.50;63.10
30304;DHT22;17112;48.636;10.152;2023-07-16T08:31:39;23.50;63.10
30304;DHT22;17112;48.636;10.152;2023-07-16T08:34:05;23.50;63.30
30304;DHT22;17112;48.636;10.152;2023-07-16T08:36:33;23.40;63.20
30304;DHT22;17112;48.636;10.152;2023-07-16T08:38:59;23.40;62.90
30304;DHT22;17112;48.636;10.152;2023-07-16T08:41:25;23.30;62.90
30304;DHT22;17112;48.636;10.152;2023-07-16T08:43:52;23.20;62.80
30304;DHT22;17112;48.636;10.152;2023-07-16T08:46:18;23.10;62.60
30304;DHT22;17112;48.636;10.152;2023-07-16T08:48:45;23.10;62.70
30304;DHT22;17112;48.636;10.152;2023-07-16T08:51:14;23.00;62.60
30304;DHT22;17112;48.636;10.152;2023-07-16T08:53:40;23.00;62.10
30304;DHT22;17112;48.636;10.152;2023-07-16T08:56:06;22.90;62.30
30304;DHT22;17112;48.636;10.152;2023-07-16T08:58:32;22.90;62.50
30304;DHT22;17112;48.636;10.152;2023-07-16T09:00:59;22.90;62.90
30304;DHT22;17112;48.636;10.152;2023-07-16T09:03:26;22.90;62.70
30304;DHT22;17112;48.636;10.152;2023-07-16T09:05:53;23.00;63.20
30304;DHT22;17112;48.636;10.152;2023-07-16T09:08:18;23.00;63.20
30304;DHT22;17112;48.636;10.152;2023-07-16T09:10:44;23.00;62.70
30304;DHT22;17112;48.636;10.152;2023-07-16T09:13:18;23.10;62.30
30304;DHT22;17112;48.636;10.152;2023-07-16T09:15:44;23.20;62.20
30304;DHT22;17112;48.636;10.152;2023-07-16T09:18:11;23.20;61.70
30304;DHT22;17112;48.636;10.152;2023-07-16T09:20:39;23.20;62.20
30304;DHT22;17112;48.636;10.152;2023-07-16T09:23:05;23.30;61.80
30304;DHT22;17112;48.636;10.152;2023-07-16T09:25:31;23.30;62.00
30304;DHT22;17112;48.636;10.152;2023-07-16T09:28:03;23.40;61.60
30304;DHT22;17112;48.636;10.152;2023-07-16T09:30:33;23.50;61.90
30304;DHT22;17112;48.636;10.152;2023-07-16T09:33:10;23.60;61.30
30304;DHT22;17112;48.636;10.152;2023-07-16T09:35:36;23.70;60.10
30304;DHT22;17112;48.636;10.152;2023-07-16T09:38:03;23.80;60.00
30304;DHT22;17112;48.636;10.152;2023-07-16T09:40:29;23.80;59.80
30304;DHT22;17112;48.636;10.152;2023-07-16T09:42:55;23.90;59.60
30304;DHT22;17112;48.636;10.152;2023-07-16T09:45:21;23.90;59.20
30304;DHT22;17112;48.636;10.152;2023-07-16T09:47:47;24.00;59.00
30304;DHT22;17112;48.636;10.152;2023-07-16T09:50:12;24.00;58.40
30304;DHT22;17112;48.636;10.152;2023-07-16T09:52:38;23.90;58.30
30304;DHT22;17112;48.636;10.152;2023-07-16T09:55:08;23.90;58.50
30304;DHT22;17112;48.636;10.152;2023-07-16T09:57:36;24.00;58.40
30304;DHT22;17112;48.636;10.152;2023-07-16T10:00:09;23.90;58.50
30304;DHT22;17112;48.636;10.152;2023-07-16T10:02:37;24.00;58.60
30304;DHT22;17112;48.636;10.152;2023-07-16T10:05:16;24.20;59.00
30304;DHT22;17112;48.636;10.152;2023-07-16T10:07:42;24.30;58.30
30304;DHT22;17112;48.636;10.152;2023-07-16T10:10:10;24.50;58.20
30304;DHT22;17112;48.636;10.152;2023-07-16T10:12:37;24.60;57.90
30304;DHT22;17112;48.636;10.152;2023-07-16T10:15:04;24.70;58.00
30304;DHT22;17112;48.636;10.152;2023-07-16T10:17:31;24.80;57.40
30304;DHT22;17112;48.636;10.152;2023-07-16T10:20:00;25.00;57.60
30304;DHT22;17112;48.636;10.152;2023-07-16T10:22:47;25.20;57.80
30304;DHT22;17112;48.636;10.152;2023-07-16T10:27:48;25.70;56.80
30304;DHT22;17112;48.636;10.152;2023-07-16T10:30:14;25.90;56.10
30304;DHT22;17112;48.636;10.152;2023-07-16T10:32:41;26.00;55.70
30304;DHT22;17112;48.636;10.152;2023-07-16T10:35:08;26.10;54.90
30304;DHT22;17112;48.636;10.152;2023-07-16T10:37:38;26.10;54.60
30304;DHT22;17112;48.636;10.152;2023-07-16T10:40:05;26.10;54.50
30304;DHT22;17112;48.636;10.152;2023-07-16T10:42:31;26.10;54.80
30304;DHT22;17112;48.636;10.152;2023-07-16T10:44:59;26.20;54.30
30304;DHT22;17112;48.636;10.152;2023-07-16T10:47:32;26.30;53.90
30304;DHT22;17112;48.636;10.152;2023-07-16T10:49:59;26.30;53.40
30304;DHT22;17112;48.636;10.152;2023-07-16T10:52:26;26.40;53.90
30304;DHT22;17112;48.636;10.152;2023-07-16T10:54:52;26.50;53.10
30304;DHT22;17112;48.636;10.152;2023-07-16T10:57:23;26.50;52.70
30304;DHT22;17112;48.636;10.152;2023-07-16T10:59:57;26.50;52.70
30304;DHT22;17112;48.636;10.152;2023-07-16T11:02:24;26.50;52.30
30304;DHT22;17112;48.636;10.152;2023-07-16T11:04:51;26.50;52.40
30304;DHT22;17112;48.636;10.152;2023-07-16T11:07:21;26.50;52.60
30304;DHT22;17112;48.636;10.152;2023-07-16T11:09:52;26.40;51.80
30304;DHT22;17112;48.636;10.152;2023-07-16T11:12:22;26.40;52.00
30304;DHT22;17112;48.636;10.152;2023-07-16T11:14:51;26.30;51.70
30304;DHT22;17112;48.636;10.152;2023-07-16T11:17:17;26.20;51.60
30304;DHT22;17112;48.636;10.152;2023-07-16T11:19:47;26.20;51.90
30304;DHT22;17112;48.636;10.152;2023-07-16T11:22:14;26.10;52.10
30304;DHT22;17112;48.636;10.152;2023-07-16T11:24:50;26.10;52.80
30304;DHT22;17112;48.636;10.152;2023-07-16T11:27:31;26.00;51.40
30304;DHT22;17112;48.636;10.152;2023-07-16T11:29:59;26.00;51.90
30304;DHT22;17112;48.636;10.152;2023-07-16T11:35:02;26.10;51.90
30304;DHT22;17112;48.636;10.152;2023-07-16T11:37:30;26.20;52.80
30304;DHT22;17112;48.636;10.152;2023-07-16T11:40:05;26.30;52.50
30304;DHT22;17112;48.636;10.152;2023-07-16T11:45:00;26.60;51.80
30304;DHT22;17112;48.636;10.152;2023-07-16T11:47:27;26.70;51.30
30304;DHT22;17112;48.636;10.152;2023-07-16T11:49:53;26.70;51.00
30304;DHT22;17112;48.636;10.152;2023-07-16T11:52:22;26.70;50.50
30304;DHT22;17112;48.636;10.152;2023-07-16T11:54:48;26.60;50.40
30304;DHT22;17112;48.636;10.152;2023-07-16T11:57:15;26.60;50.30
30304;DHT22;17112;48.636;10.152;2023-07-16T11:59:41;26.70;51.20
30304;DHT22;17112;48.636;10.152;2023-07-16T12:02:07;26.80;51.10
30304;DHT22;17112;48.636;10.152;2023-07-16T12:04:33;27.00;52.10
30304;DHT22;17112;48.636;10.152;2023-07-16T12:06:59;27.10;52.60
30304;DHT22;17112;48.636;10.152;2023-07-16T12:09:24;27.40;52.20
30304;DHT22;17112;48.636;10.152;2023-07-16T12:11:50;27.60;51.10
30304;DHT22;17112;48.636;10.152;2023-07-16T12:14:16;27.80;50.90
30304;DHT22;17112;48.636;10.152;2023-07-16T12:16:41;27.90;51.10
30304;DHT22;17112;48.636;10.152;2023-07-16T12:19:09;28.10;51.30
30304;DHT22;17112;48.636;10.152;2023-07-16T12:21:35;28.30;50.70
30304;DHT22;17112;48.636;10.152;2023-07-16T12:24:01;28.60;50.90
30304;DHT22;17112;48.636;10.152;2023-07-16T12:26:27;28.90;50.60
30304;DHT22;17112;48.636;10.152;2023-07-16T12:28:53;29.10;49.80
30304;DHT22;17112;48.636;10.152;2023-07-16T12:31:19;29.30;49.00
30304;DHT22;17112;48.636;10.152;2023-07-16T12:33:48;29.50;47.70
30304;DHT22;17112;48.636;10.152;2023-07-16T12:36:14;29.50;47.40
30304;DHT22;17112;48.636;10.152;2023-07-16T12:38:40;29.50;47.30
30304;DHT22;17112;48.636;10.152;2023-07-16T12:41:06;29.60;47.20
30304;DHT22;17112;48.636;10.152;2023-07-16T12:43:32;29.60;46.90
30304;DHT22;17112;48.636;10.152;2023-07-16T12:46:03;29.60;46.80
30304;DHT22;17112;48.636;10.152;2023-07-16T12:48:30;29.60;47.10
30304;DHT22;17112;48.636;10.152;2023-07-16T12:50:55;29.70;46.90
30304;DHT22;17112;48.636;10.152;2023-07-16T12:53:22;29.70;47.00
30304;DHT22;17112;48.636;10.152;2023-07-16T12:55:47;29.80;47.50
30304;DHT22;17112;48.636;10.152;2023-07-16T12:58:15;29.90;46.90
30304;DHT22;17112;48.636;10.152;2023-07-16T13:00:41;30.00;47.40
30304;DHT22;17112;48.636;10.152;2023-07-16T13:03:07;30.00;46.90
30304;DHT22;17112;48.636;10.152;2023-07-16T13:05:38;30.10;47.00
30304;DHT22;17112;48.636;10.152;2023-07-16T13:08:04;30.20;45.70
30304;DHT22;17112;48.636;10.152;2023-07-16T13:10:30;30.20;46.90
30304;DHT22;17112;48.636;10.152;2023-07-16T13:12:56;30.30;46.90
30304;DHT22;17112;48.636;10.152;2023-07-16T13:15:21;30.50;45.70
30304;DHT22;17112;48.636;10.152;2023-07-16T13:17:47;30.60;45.80
30304;DHT22;17112;48.636;10.152;2023-07-16T13:20:16;30.80;45.70
30304;DHT22;17112;48.636;10.152;2023-07-16T13:22:43;31.00;44.90
30304;DHT22;17112;48.636;10.152;2023-07-16T13:25:08;31.10;44.60
30304;DHT22;17112;48.636;10.152;2023-07-16T13:27:34;31.10;44.20
30304;DHT22;17112;48.636;10.152;2023-07-16T13:30:00;31.00;43.70
30304;DHT22;17112;48.636;10.152;2023-07-16T13:32:25;30.90;43.10
30304;DHT22;17112;48.636;10.152;2023-07-16T13:34:51;30.80;43.30
30304;DHT22;17112;48.636;10.152;2023-07-16T13:37:17;30.60;42.90
30304;DHT22;17112;48.636;10.152;2023-07-16T13:39:42;30.50;42.80
30304;DHT22;17112;48.636;10.152;2023-07-16T13:42:08;30.30;43.90
30304;DHT22;17112;48.636;10.152;2023-07-16T13:44:36;30.10;43.00
30304;DHT22;17112;48.636;10.152;2023-07-16T13:47:02;30.10;43.00
30304;DHT22;17112;48.636;10.152;2023-07-16T13:49:28;29.90;42.60
30304;DHT22;17112;48.636;10.152;2023-07-16T13:51:54;29.80;43.10
30304;DHT22;17112;48.636;10.152;2023-07-16T13:54:19;29.60;43.30
30304;DHT22;17112;48.636;10.152;2023-07-16T13:56:45;29.60;43.70
30304;DHT22;17112;48.636;10.152;2023-07-16T13:59:11;29.50;44.60
30304;DHT22;17112;48.636;10.152;2023-07-16T14:01:40;29.50;44.50
30304;DHT22;17112;48.636;10.152;2023-07-16T14:04:06;29.40;44.20
30304;DHT22;17112;48.636;10.152;2023-07-16T14:06:32;29.40;44.90
30304;DHT22;17112;48.636;10.152;2023-07-16T14:08:58;29.50;45.70
30304;DHT22;17112;48.636;10.152;2023-07-16T14:11:24;29.60;46.20
30304;DHT22;17112;48.636;10.152;2023-07-16T14:13:51;29.80;45.60
30304;DHT22;17112;48.636;10.152;2023-07-16T14:16:20;30.00;44.90
30304;DHT22;17112;48.636;10.152;2023-07-16T14:18:50;30.10;44.10
30304;DHT22;17112;48.636;10.152;2023-07-16T14:21:17;30.30;43.60
30304;DHT22;17112;48.636;10.152;2023-07-16T14:23:43;30.30;43.70
30304;DHT22;17112;48.636;10.152;2023-07-16T14:26:09;30.30;43.60
30304;DHT22;17112;48.636;10.152;2023-07-16T14:28:34;30.30;43.20
30304;DHT22;17112;48.636;10.152;2023-07-16T14:31:00;30.20;43.60
30304;DHT22;17112;48.636;10.152;2023-07-16T14:33:26;30.00;44.00
30304;DHT22;17112;48.636;10.152;2023-07-16T14:35:53;29.90;43.30
30304;DHT22;17112;48.636;10.152;2023-07-16T14:38:36;29.80;43.80
30304;DHT22;17112;48.636;10.152;2023-07-16T14:41:01;29.70;43.10
30304;DHT22;17112;48.636;10.152;2023-07-16T14:43:28;29.70;43.90
30304;DHT22;17112;48.636;10.152;2023-07-16T14:45:54;29.50;43.70
30304;DHT22;17112;48.636;10.152;2023-07-16T14:48:19;29.50;44.20
30304;DHT22;17112;48.636;10.152;2023-07-16T14:50:49;29.50;45.00
30304;DHT22;17112;48.636;10.152;2023-07-16T14:53:15;29.60;44.70
30304;DHT22;17112;48.636;10.152;2023-07-16T14:55:49;29.70;44.30
30304;DHT22;17112;48.636;10.152;2023-07-16T14:58:17;29.70;44.10
30304;DHT22;17112;48.636;10.152;2023-07-16T15:00:44;29.80;44.10
30304;DHT22;17112;48.636;10.152;2023-07-16T15:03:10;29.70;44.20
30304;DHT22;17112;48.636;10.152;2023-07-16T15:05:36;29.70;43.70
30304;DHT22;17112;48.636;10.152;2023-07-16T15:08:02;29.70;44.10
30304;DHT22;17112;48.636;10.152;2023-07-16T15:10:29;29.70;44.00
30304;DHT22;17112;48.636;10.152;2023-07-16T15:12:54;29.70;44.20
30304;DHT22;17112;48.636;10.152;2023-07-16T15:15:20;29.70;43.80
30304;DHT22;17112;48.636;10.152;2023-07-16T15:17:46;29.70;43.50
30304;DHT22;17112;48.636;10.152;2023-07-16T15:20:12;29.60;44.00
30304;DHT22;17112;48.636;10.152;2023-07-16T15:22:38;29.70;44.70
30304;DHT22;17112;48.636;10.152;2023-07-16T15:25:04;29.70;45.20